Time;durP1;ratioP1;P1;durP2;ratioP2;P2;SDS_P1;SDS_P2;PMS_P1;PMS_P2;Temp;Humidity;BMP_temperature;BMP_pressure;BME280_temperature;BME280_humidity;BME280_pressure;Samples;Min_cycle;Max_cycle;Signal;HPM_P1;HPM_P2
2021/10/05 00:07:54;;;;;;;5.20;2.50;;;11.70;99.90;;;;;;6680754;88;20198;-78
2021/10/05 00:17:55;;;;;;;4.30;2.50;;;11.70;99.90;;;;;;6692916;88;20245;-78
2021/10/05 00:27:55;;;;;;;3.90;2.30;;;11.70;99.90;;;;;;6669303;88;20231;-78
2021/10/05 00:37:56;;;;;;;6.20;2.90;;;11.70;99.90;;;;;;6685079;88;20251;-78
2021/10/05 00:47:56;;;;;;;6.62;2.25;;;11.70;99.90;;;;;;6714940;88;20189;-79
2021/10/05 00:57:57;;;;;;;4.03;2.33;;;11.70;99.90;;;;;;6684893;88;20325;-79
2021/10/05 01:07:57;;;;;;;4.28;2.22;;;11.60;99.90;;;;;;6684176;88;20189;-78
2021/10/05 01:17:58;;;;;;;3.75;2.10;;;11.40;99.90;;;;;;6653569;89;20208;-78
2021/10/05 01:27:59;;;;;;;3.30;1.80;;;11.40;99.90;;;;;;6670785;88;20663;-79
2021/10/05 01:37:59;;;;;;;3.40;1.85;;;11.40;99.90;;;;;;6667814;88;20523;-79
2021/10/05 01:48:00;;;;;;;4.28;1.92;;;11.50;99.90;;;;;;6667661;89;20212;-79
2021/10/05 01:58:00;;;;;;;5.50;2.53;;;11.50;99.90;;;;;;6658838;89;20205;-79
2021/10/05 02:08:01;;;;;;;3.60;1.90;;;11.10;99.90;;;;;;6659377;88;20209;-78
2021/10/05 02:18:05;;;;;;;3.50;1.92;;;11.10;99.90;;;;;;6690886;88;20196;-79
2021/10/05 02:28:06;;;;;;;4.20;1.80;;;11.00;99.90;;;;;;6665454;88;20221;-78
2021/10/05 02:38:06;;;;;;;3.12;1.67;;;11.00;99.90;;;;;;6654673;88;20245;-78
2021/10/05 02:48:07;;;;;;;3.97;1.60;;;10.90;99.90;;;;;;6654220;89;20201;-78
2021/10/05 02:58:07;;;;;;;3.92;1.60;;;10.90;99.90;;;;;;6665354;88;20273;-78
2021/10/05 03:08:08;;;;;;;2.97;1.45;;;10.90;99.90;;;;;;6642126;89;20210;-77
2021/10/05 03:18:08;;;;;;;2.70;1.50;;;11.20;99.90;;;;;;6666857;88;20625;-78
2021/10/05 03:28:09;;;;;;;1.98;1.20;;;11.40;99.90;;;;;;6698526;88;20515;-77
2021/10/05 03:38:10;;;;;;;3.22;1.30;;;11.40;99.90;;;;;;6677196;88;20193;-80
2021/10/05 03:48:12;;;;;;;1.40;1.00;;;11.40;99.90;;;;;;6653735;88;20321;-77
2021/10/05 03:58:13;;;;;;;1.85;1.10;;;11.40;99.90;;;;;;6686462;88;20519;-77
2021/10/05 04:08:14;;;;;;;3.20;1.20;;;11.40;99.90;;;;;;6662492;88;20195;-78
2021/10/05 04:18:14;;;;;;;2.22;1.37;;;11.30;99.90;;;;;;6655238;89;20204;-78
2021/10/05 04:28:15;;;;;;;2.97;1.30;;;11.30;99.90;;;;;;6656050;88;20247;-78
2021/10/05 04:38:15;;;;;;;2.70;1.37;;;11.30;99.90;;;;;;6678622;88;20208;-78
2021/10/05 04:48:16;;;;;;;1.83;1.30;;;11.30;99.90;;;;;;6657508;89;20200;-78
2021/10/05 04:58:17;;;;;;;2.53;1.40;;;11.30;99.90;;;;;;6692570;88;20210;-78
2021/10/05 05:08:17;;;;;;;3.10;1.48;;;11.20;99.90;;;;;;6652191;89;20337;-78
2021/10/05 05:18:18;;;;;;;2.87;1.60;;;11.20;99.90;;;;;;6656195;89;20692;-78
2021/10/05 05:28:20;;;;;;;5.28;1.80;;;11.30;99.90;;;;;;6705494;88;20256;-79
2021/10/05 05:38:23;;;;;;;1.80;1.30;;;11.40;99.90;;;;;;6671969;88;20209;-79
2021/10/05 05:48:24;;;;;;;4.10;1.35;;;11.40;99.90;;;;;;6655299;89;20208;-80
2021/10/05 05:58:24;;;;;;;2.22;1.00;;;11.50;99.90;;;;;;6660413;89;20215;-80
2021/10/05 06:08:25;;;;;;;1.85;1.02;;;11.60;99.90;;;;;;6676765;88;20207;-78
2021/10/05 06:18:25;;;;;;;1.80;1.03;;;11.60;99.90;;;;;;6667310;88;20352;-80
2021/10/05 06:28:26;;;;;;;2.53;1.45;;;11.60;99.90;;;;;;6668755;88;20527;-80
2021/10/05 06:38:27;;;;;;;2.37;1.30;;;11.60;99.90;;;;;;6658650;88;20612;-79
2021/10/05 06:48:28;;;;;;;2.90;1.70;;;11.60;99.90;;;;;;6663135;88;20180;-80
2021/10/05 06:58:28;;;;;;;2.37;1.60;;;11.70;99.90;;;;;;6660599;89;20204;-80
2021/10/05 07:08:30;;;;;;;4.12;1.33;;;11.70;99.90;;;;;;6665642;89;20330;-80
2021/10/05 07:18:33;;;;;;;2.62;1.58;;;11.80;99.90;;;;;;6666805;89;20223;-79
2021/10/05 07:28:33;;;;;;;1.83;1.10;;;11.90;99.90;;;;;;6677048;89;20250;-79
2021/10/05 07:38:36;;;;;;;2.25;1.17;;;12.10;99.90;;;;;;6662640;89;20199;-80
2021/10/05 07:48:36;;;;;;;2.35;1.50;;;12.20;99.90;;;;;;6677565;89;20247;-80
2021/10/05 07:58:37;;;;;;;3.12;1.52;;;12.30;99.90;;;;;;6677319;89;20325;-79
2021/10/05 08:08:38;;;;;;;4.20;1.63;;;12.70;99.90;;;;;;6676087;89;20252;-80
2021/10/05 08:18:38;;;;;;;3.62;1.70;;;12.70;99.90;;;;;;6675928;89;20207;-79
2021/10/05 08:28:39;;;;;;;3.08;1.55;;;13.20;99.90;;;;;;6659734;89;20307;-78
2021/10/05 08:38:40;;;;;;;3.35;1.50;;;13.30;99.90;;;;;;6744627;88;20756;-79
2021/10/05 08:48:41;;;;;;;3.15;1.23;;;14.40;99.90;;;;;;6703163;88;20229;-79
2021/10/05 08:58:42;;;;;;;2.65;1.20;;;15.00;99.90;;;;;;6664958;89;20206;-79
2021/10/05 09:08:44;;;;;;;2.72;1.27;;;15.30;99.90;;;;;;6665310;89;20648;-78
2021/10/05 09:19:00;;;;;;;2.58;1.40;;;15.40;99.90;;;;;;6673041;89;20326;-79
2021/10/05 09:29:30;;;;;;;;;;;16.30;99.90;;;;;;6674011;89;20236;-79
2021/10/05 09:39:48;;;;;;;2.80;1.30;;;16.50;99.90;;;;;;6677626;88;20495;-79
2021/10/05 09:49:48;;;;;;;1.40;0.90;;;17.10;99.90;;;;;;6671017;88;20696;-79
2021/10/05 09:59:49;;;;;;;4.60;1.30;;;17.40;99.90;;;;;;6660863;89;20331;-78
2021/10/05 10:09:49;;;;;;;2.53;1.10;;;17.50;99.90;;;;;;6672239;89;20196;-83
2021/10/05 10:19:51;;;;;;;2.55;1.17;;;17.80;99.90;;;;;;6675822;89;20222;-79
2021/10/05 10:29:53;;;;;;;2.35;0.98;;;18.10;99.90;;;;;;6667097;89;20684;-79
2021/10/05 10:39:55;;;;;;;2.25;1.05;;;18.40;99.90;;;;;;6666721;89;20199;-80
2021/10/05 10:50:01;;;;;;;3.35;0.98;;;19.10;99.90;;;;;;6667426;89;20233;-79
2021/10/05 11:00:16;;;;;;;3.03;1.02;;;19.30;99.90;;;;;;6663598;89;20334;-78
2021/10/05 11:10:23;;;;;;;3.00;0.80;;;19.70;99.90;;;;;;6667297;89;20186;-79
2021/10/05 11:20:23;;;;;;;4.95;0.68;;;19.50;99.90;;;;;;6665834;89;20539;-77
2021/10/05 11:30:24;;;;;;;1.95;0.60;;;19.30;99.90;;;;;;6664298;89;20279;-78
2021/10/05 11:40:25;;;;;;;3.03;0.80;;;19.90;99.90;;;;;;6667474;89;20381;-79
2021/10/05 11:50:25;;;;;;;1.60;0.70;;;20.60;99.90;;;;;;6666632;89;20837;-78
2021/10/05 12:00:26;;;;;;;3.97;0.90;;;21.10;99.70;;;;;;6666946;89;20275;-78
2021/10/05 12:10:26;;;;;;;4.15;1.00;;;20.10;99.90;;;;;;6666579;89;20248;-79
2021/10/05 12:20:27;;;;;;;2.87;1.10;;;19.50;99.90;;;;;;6666044;89;20196;-78
2021/10/05 12:30:31;;;;;;;4.75;1.10;;;19.50;99.90;;;;;;6662136;89;20326;-79
2021/10/05 12:40:58;;;;;;;3.72;1.17;;;18.90;99.90;;;;;;6667403;89;20595;-78
2021/10/05 12:50:59;;;;;;;3.25;1.00;;;18.60;99.90;;;;;;6669450;89;20294;-79
2021/10/05 13:00:59;;;;;;;2.03;1.00;;;20.20;99.90;;;;;;6672211;89;20203;-78
2021/10/05 13:11:00;;;;;;;2.62;0.85;;;19.50;99.90;;;;;;6670635;89;20270;-79
2021/10/05 13:21:00;;;;;;;3.20;0.98;;;18.90;99.90;;;;;;6666189;89;20696;-78
2021/10/05 13:31:01;;;;;;;1.77;0.85;;;18.80;99.90;;;;;;6669797;89;20337;-79
2021/10/05 13:41:02;;;;;;;2.50;0.80;;;18.60;99.90;;;;;;6665525;89;20786;-79
2021/10/05 13:51:02;;;;;;;2.90;0.90;;;18.40;99.90;;;;;;6667039;89;20186;-79
2021/10/05 14:01:03;;;;;;;3.90;1.02;;;18.30;99.90;;;;;;6668806;89;20286;-79
2021/10/05 14:11:03;;;;;;;2.33;0.60;;;18.10;99.90;;;;;;6669126;89;20317;-79
2021/10/05 14:21:05;;;;;;;2.22;0.60;;;17.80;99.90;;;;;;6665946;89;20619;-80
2021/10/05 14:31:06;;;;;;;2.83;0.65;;;17.80;99.90;;;;;;6666454;89;20221;-79
2021/10/05 14:41:07;;;;;;;1.87;0.68;;;17.90;99.90;;;;;;6672662;89;20235;-80
2021/10/05 14:51:08;;;;;;;2.20;0.80;;;17.80;99.90;;;;;;6677110;89;20215;-80
2021/10/05 15:01:09;;;;;;;2.60;0.70;;;17.30;99.90;;;;;;6677184;89;20626;-80
2021/10/05 15:11:09;;;;;;;3.53;0.90;;;17.20;99.90;;;;;;6677677;89;20235;-80
2021/10/05 15:21:10;;;;;;;9.85;0.90;;;17.20;99.90;;;;;;6673966;89;20228;-77
2021/10/05 15:31:11;;;;;;;2.75;0.80;;;17.10;99.90;;;;;;6671476;88;20228;-78
2021/10/05 15:41:12;;;;;;;1.85;0.73;;;17.00;99.90;;;;;;6653409;88;20216;-79
2021/10/05 15:51:22;;;;;;;2.70;0.62;;;16.90;99.90;;;;;;6649689;88;20218;-77
2021/10/05 16:01:23;;;;;;;2.65;0.70;;;16.80;99.90;;;;;;6656630;89;20246;-80
2021/10/05 16:11:24;;;;;;;2.35;0.75;;;16.70;99.90;;;;;;6662390;89;20225;-80
2021/10/05 16:21:25;;;;;;;2.03;0.65;;;16.60;99.90;;;;;;6652190;88;20686;-80
2021/10/05 16:31:25;;;;;;;1.10;0.50;;;16.60;99.90;;;;;;6653406;89;20221;-79
2021/10/05 16:41:26;;;;;;;1.77;0.47;;;16.40;99.90;;;;;;6655748;89;20426;-79
2021/10/05 16:51:26;;;;;;;2.28;0.60;;;16.30;99.90;;;;;;6653517;89;20690;-78
2021/10/05 17:01:28;;;;;;;2.67;0.50;;;14.10;99.90;;;;;;6662119;89;20708;-79
2021/10/05 17:11:28;;;;;;;3.08;0.80;;;13.00;99.90;;;;;;6656897;89;20180;-78
2021/10/05 17:21:29;;;;;;;2.10;0.70;;;12.70;99.90;;;;;;6711295;88;20187;-78
2021/10/05 17:31:31;;;;;;;3.42;1.12;;;12.60;99.90;;;;;;6689214;88;20207;-78
2021/10/05 17:41:32;;;;;;;2.70;0.70;;;12.80;99.90;;;;;;6653628;89;20721;-77
2021/10/05 17:51:33;;;;;;;2.42;0.80;;;12.80;99.90;;;;;;6655940;89;20239;-78
2021/10/05 18:01:34;;;;;;;3.87;0.90;;;13.00;99.90;;;;;;6655742;89;20217;-78
2021/10/05 18:11:35;;;;;;;3.50;0.80;;;12.80;99.90;;;;;;6664196;88;21769;-81
2021/10/05 18:21:37;;;;;;;3.42;1.40;;;12.70;99.90;;;;;;6716807;88;20320;-78
2021/10/05 18:31:37;;;;;;;4.18;1.10;;;12.50;99.90;;;;;;6715643;88;20291;-78
2021/10/05 18:41:38;;;;;;;3.90;1.00;;;12.30;99.90;;;;;;6662922;88;20213;-78
2021/10/05 18:51:38;;;;;;;4.53;1.00;;;12.10;99.90;;;;;;6654178;88;20585;-77
2021/10/05 19:01:39;;;;;;;2.53;0.90;;;12.00;99.90;;;;;;6656165;88;20207;-78
2021/10/05 19:11:39;;;;;;;5.85;1.08;;;11.90;99.90;;;;;;6665098;88;20188;-77
2021/10/05 19:21:40;;;;;;;3.67;1.20;;;11.70;99.90;;;;;;6716549;88;20268;-77
2021/10/05 19:31:41;;;;;;;3.53;1.10;;;11.70;99.90;;;;;;6708498;88;20196;-77
2021/10/05 19:41:42;;;;;;;5.22;1.10;;;11.70;99.90;;;;;;6647527;89;20746;-77
2021/10/05 19:51:42;;;;;;;3.75;1.00;;;11.60;99.90;;;;;;6647291;89;20202;-77
2021/10/05 20:01:43;;;;;;;2.15;0.62;;;11.50;99.90;;;;;;6660510;88;20223;-77
2021/10/05 20:11:43;;;;;;;4.25;0.80;;;11.40;99.90;;;;;;6658222;88;20205;-77
2021/10/05 20:21:44;;;;;;;3.85;0.73;;;11.30;99.90;;;;;;6650663;88;20198;-77
2021/10/05 20:31:46;;;;;;;6.75;1.10;;;11.20;99.90;;;;;;6652687;88;20184;-77
2021/10/05 20:41:46;;;;;;;6.18;0.88;;;11.20;99.90;;;;;;6653005;88;20229;-77
2021/10/05 20:51:47;;;;;;;3.58;0.57;;;11.10;99.90;;;;;;6644354;88;20307;-76
2021/10/05 21:01:47;;;;;;;3.40;0.80;;;11.20;99.90;;;;;;6650438;88;20315;-77
2021/10/05 21:11:48;;;;;;;5.18;0.93;;;11.10;99.90;;;;;;6664595;88;20277;-77
2021/10/05 21:21:49;;;;;;;3.03;0.90;;;11.00;99.90;;;;;;6651713;88;20644;-77
2021/10/05 21:31:49;;;;;;;2.08;0.80;;;10.90;99.90;;;;;;6655269;88;20201;-77
2021/10/05 21:41:50;;;;;;;3.72;1.00;;;10.80;99.90;;;;;;6658911;89;20346;-77
2021/10/05 21:51:51;;;;;;;2.65;0.73;;;10.80;99.90;;;;;;6647328;88;20192;-77
2021/10/05 22:01:52;;;;;;;4.18;0.70;;;10.80;99.90;;;;;;6658340;88;20315;-77
2021/10/05 22:11:53;;;;;;;2.37;0.62;;;11.00;99.90;;;;;;6645958;89;20263;-76
2021/10/05 22:21:54;;;;;;;4.40;0.70;;;11.00;99.90;;;;;;6650064;88;20667;-76
2021/10/05 22:32:01;;;;;;;1.87;0.57;;;11.10;99.90;;;;;;6650971;88;20201;-77
2021/10/05 22:42:03;;;;;;;4.78;0.85;;;11.20;99.90;;;;;;6645285;88;20189;-77
2021/10/05 22:52:04;;;;;;;3.53;0.68;;;11.20;99.90;;;;;;6644703;88;20222;-77
2021/10/05 23:02:05;;;;;;;4.43;0.80;;;11.10;99.90;;;;;;6642898;89;20220;-76
2021/10/05 23:12:07;;;;;;;2.25;0.70;;;11.00;99.90;;;;;;6649940;89;20337;-77
2021/10/05 23:22:08;;;;;;;2.92;0.73;;;10.90;99.90;;;;;;6649751;88;20196;-76
2021/10/05 23:32:08;;;;;;;4.95;1.08;;;10.80;99.90;;;;;;6652394;89;20760;-76
2021/10/05 23:42:09;;;;;;;1.73;0.80;;;10.80;99.90;;;;;;6656068;88;20671;-77
2021/10/05 23:52:09;;;;;;;5.62;1.00;;;11.00;99.90;;;;;;6653387;88;20196;-78
